Time;durP1;ratioP1;P1;durP2;ratioP2;P2;SDS_P1;SDS_P2;PMS_P1;PMS_P2;Temp;Humidity;BMP_temperature;BMP_pressure;BME280_temperature;BME280_humidity;BME280_pressure;Samples;Min_cycle;Max_cycle;Signal;HPM_P1;HPM_P2
2024/01/02 00:01:08;;;;;;;25.37;15.30;;;;;;;9.32;100.00;63919.63;5055435;28;20181;-55
2024/01/02 00:03:34;;;;;;;21.90;13.03;;;;;;;9.18;100.00;63904.31;5073681;28;20641;-56
2024/01/02 00:05:59;;;;;;;20.57;12.90;;;;;;;9.15;100.00;63901.56;5073303;28;20185;-54
2024/01/02 00:08:25;;;;;;;23.63;14.40;;;;;;;9.25;100.00;63910.00;5055329;28;20534;-55
2024/01/02 00:10:50;;;;;;;15.63;10.00;;;;;;;9.16;100.00;63902.13;5073394;28;20279;-54
2024/01/02 00:13:17;;;;;;;20.57;12.27;;;;;;;9.15;100.00;63901.56;5073202;28;20296;-55
2024/01/02 00:15:43;;;;;;;18.23;13.27;;;;;;;9.10;100.00;63895.56;5073324;28;20184;-53
2024/01/02 00:18:09;;;;;;;20.80;13.20;;;;;;;9.13;100.00;63899.38;5074061;28;20204;-56
2024/01/02 00:20:34;;;;;;;18.93;12.53;;;;;;;9.16;100.00;63899.59;5073347;28;20185;-55
2024/01/02 00:23:00;;;;;;;18.40;9.87;;;;;;;9.15;100.00;63901.56;5073414;28;20564;-54
2024/01/02 00:25:25;;;;;;;23.47;14.67;;;;;;;9.08;100.00;63890.88;5072069;28;20219;-53
2024/01/02 00:27:51;;;;;;;11.73;8.53;;;;;;;9.15;100.00;63901.03;5054916;28;20601;-54
2024/01/02 00:30:17;;;;;;;13.57;8.53;;;;;;;9.14;100.00;63900.50;5073086;28;20192;-53
2024/01/02 00:32:43;;;;;;;10.90;7.77;;;;;;;9.14;100.00;63897.41;5073091;28;20816;-53
2024/01/02 00:35:09;;;;;;;9.83;6.70;;;;;;;9.07;100.00;63890.31;5072953;28;20296;-54
2024/01/02 00:37:35;;;;;;;14.50;9.80;;;;;;;9.08;100.00;63893.94;5072819;28;20560;-58
2024/01/02 00:40:00;;;;;;;12.93;7.93;;;;;;;9.18;100.00;63901.78;5072998;28;20192;-59
2024/01/02 00:42:33;;;;;;;11.50;7.33;;;;;;;9.20;100.00;63904.53;5072900;28;20678;-56
2024/01/02 00:44:59;;;;;;;8.03;5.93;;;;;;;9.15;100.00;63901.03;5072789;28;20185;-54
2024/01/02 00:47:26;;;;;;;7.43;6.00;;;;;;;9.02;100.00;63887.38;5072796;28;20221;-55
2024/01/02 00:49:51;;;;;;;9.17;6.17;;;;;;;9.25;100.00;63909.47;5072747;28;20278;-55
2024/01/02 00:52:17;;;;;;;9.67;6.30;;;;;;;9.17;100.00;63898.19;5072627;28;20327;-55
2024/01/02 00:54:43;;;;;;;8.10;5.87;;;;;;;9.01;100.00;63886.28;5054537;28;20307;-55
2024/01/02 00:57:08;;;;;;;5.90;4.10;;;;;;;8.90;100.00;63871.75;5072407;28;20197;-56
2024/01/02 00:59:34;;;;;;;6.93;5.03;;;;;;;8.91;100.00;63872.28;5072791;28;20238;-55
2024/01/02 01:01:59;;;;;;;8.47;4.50;;;;;;;8.91;100.00;63874.78;5072451;28;20755;-55
2024/01/02 01:04:25;;;;;;;5.07;4.10;;;;;;;8.88;100.00;63871.53;5072444;28;20196;-54
2024/01/02 01:06:51;;;;;;;4.50;3.50;;;;;;;8.92;100.00;63873.38;5054408;28;20209;-55
2024/01/02 01:09:17;;;;;;;5.90;4.47;;;;;;;8.80;100.00;63862.78;5072450;28;20185;-56
2024/01/02 01:11:43;;;;;;;6.30;3.63;;;;;;;8.98;100.00;63882.44;5072246;28;20209;-54
2024/01/02 01:14:08;;;;;;;6.47;3.70;;;;;;;9.29;100.00;63913.81;5072316;28;20588;-55
2024/01/02 01:16:34;;;;;;;5.93;4.20;;;;;;;9.33;100.00;63915.69;5072055;28;20203;-55
2024/01/02 01:18:59;;;;;;;5.97;4.50;;;;;;;9.33;100.00;63918.19;5072112;28;20185;-54
2024/01/02 01:21:25;;;;;;;5.63;4.03;;;;;;;9.16;100.00;63902.13;5072050;28;20188;-55
2024/01/02 01:23:50;;;;;;;7.60;5.40;;;;;;;9.17;100.00;63900.72;5054200;28;20189;-55
2024/01/02 01:26:16;;;;;;;10.27;5.87;;;;;;;9.20;100.00;63906.50;5072111;28;20274;-54
2024/01/02 01:28:42;;;;;;;9.77;6.10;;;;;;;9.19;100.00;63902.91;5072495;28;20713;-53
2024/01/02 01:31:08;;;;;;;7.90;5.90;;;;;;;9.36;100.00;63920.91;5071994;28;20275;-54
2024/01/02 01:33:33;;;;;;;9.00;6.07;;;;;;;9.32;100.00;63920.16;5072187;28;20615;-54
2024/01/02 01:35:59;;;;;;;6.63;5.00;;;;;;;9.32;100.00;63920.16;5054458;28;20188;-53
2024/01/02 01:38:24;;;;;;;8.73;5.60;;;;;;;9.41;100.00;63929.47;5071698;28;20756;-55
2024/01/02 01:40:50;;;;;;;6.93;5.27;;;;;;;9.45;100.00;63931.31;5053939;28;20647;-53
2024/01/02 01:43:15;;;;;;;8.20;5.57;;;;;;;9.50;100.00;63938.75;5071922;28;20236;-54
2024/01/02 01:45:41;;;;;;;9.07;5.93;;;;;;;9.46;100.00;63931.84;5072206;28;20559;-54
2024/01/02 01:48:09;;;;;;;11.87;7.23;;;;;;;9.52;100.00;63938.97;5072100;28;20217;-54
2024/01/02 01:50:35;;;;;;;9.93;6.57;;;;;;;9.43;100.00;63928.59;5071768;28;20194;-54
2024/01/02 01:53:02;;;;;;;9.93;6.40;;;;;;;9.33;100.00;63920.72;5071923;28;20213;-53
2024/01/02 01:55:28;;;;;;;10.17;7.40;;;;;;;9.16;100.00;63902.13;5071670;28;20196;-54
2024/01/02 01:57:53;;;;;;;9.13;6.77;;;;;;;9.41;100.00;63931.41;5071799;28;20196;-54
2024/01/02 02:00:20;;;;;;;11.70;6.90;;;;;;;9.23;100.00;63910.31;5071748;28;20218;-54
2024/01/02 02:02:47;;;;;;;10.93;6.90;;;;;;;9.23;100.00;63909.78;5053932;28;20269;-54
2024/01/02 02:05:12;;;;;;;10.97;6.83;;;;;;;9.26;100.00;63913.06;5071535;28;20658;-53
2024/01/02 02:07:40;;;;;;;7.73;6.60;;;;;;;9.31;100.00;63918.53;5071417;28;20441;-54
2024/01/02 02:10:10;;;;;;;10.73;7.13;;;;;;;9.29;100.00;63916.34;5071514;28;20188;-55
2024/01/02 02:12:36;;;;;;;8.10;6.27;;;;;;;9.19;100.00;63902.91;5071639;28;20240;-54
2024/01/02 02:15:03;;;;;;;10.00;6.80;;;;;;;8.88;100.00;63869.00;5071479;28;20590;-55
2024/01/02 02:17:30;;;;;;;12.67;6.87;;;;;;;9.05;100.00;63887.59;5071172;28;20213;-55
2024/01/02 02:19:56;;;;;;;8.80;6.33;;;;;;;9.18;100.00;63901.78;5053532;28;20618;-53
2024/01/02 02:22:33;;;;;;;9.00;6.67;;;;;;;9.31;100.00;63919.06;5071240;28;20219;-54
2024/01/02 02:24:59;;;;;;;12.00;7.00;;;;;;;9.33;100.00;63915.69;5053229;28;20196;-54
2024/01/02 02:27:27;;;;;;;9.93;6.60;;;;;;;9.42;100.00;63928.03;5071585;28;20601;-53
2024/01/02 02:29:52;;;;;;;12.63;7.47;;;;;;;8.80;100.00;63860.81;5071177;28;20716;-53
2024/01/02 02:32:20;;;;;;;9.50;6.60;;;;;;;9.02;100.00;63886.81;5071029;28;20265;-53
2024/01/02 02:34:45;;;;;;;11.47;6.90;;;;;;;9.21;100.00;63905.09;5071126;28;20301;-54
2024/01/02 02:37:11;;;;;;;10.30;6.97;;;;;;;9.17;100.00;63900.72;5053126;28;20699;-56
2024/01/02 02:39:37;;;;;;;11.23;6.43;;;;;;;9.25;100.00;63910.00;5071028;28;20708;-55
2024/01/02 02:42:02;;;;;;;11.07;6.97;;;;;;;9.17;100.00;63898.19;5071128;28;20649;-52
2024/01/02 02:44:28;;;;;;;14.17;8.60;;;;;;;9.13;100.00;63893.81;5070964;28;20230;-55
2024/01/02 02:46:54;;;;;;;13.50;9.33;;;;;;;9.12;100.00;63893.28;5070888;28;20244;-57
2024/01/02 02:49:19;;;;;;;18.30;9.87;;;;;;;9.05;100.00;63890.13;5052120;28;20192;-53
2024/01/02 02:51:45;;;;;;;15.57;10.57;;;;;;;9.09;100.00;63894.47;5070596;28;20671;-53
2024/01/02 02:54:11;;;;;;;15.67;10.07;;;;;;;9.25;100.00;63910.00;5070681;28;20239;-53
2024/01/02 02:56:36;;;;;;;19.10;11.20;;;;;;;9.15;100.00;63899.06;5070563;28;20219;-54
2024/01/02 02:59:02;;;;;;;24.37;13.37;;;;;;;9.12;100.00;63898.31;5070894;28;20271;-54
2024/01/02 03:01:28;;;;;;;21.80;13.20;;;;;;;8.89;100.00;63870.09;5070686;28;20201;-55
2024/01/02 03:03:54;;;;;;;18.43;12.87;;;;;;;8.79;100.00;63857.22;5071105;28;20575;-53
2024/01/02 03:06:20;;;;;;;22.37;12.97;;;;;;;8.65;100.00;63843.88;5070642;28;20189;-53
2024/01/02 03:08:46;;;;;;;23.33;13.10;;;;;;;8.72;100.00;63854.03;5070702;28;20209;-53
2024/01/02 03:11:11;;;;;;;21.23;12.83;;;;;;;8.48;100.00;63828.38;5052598;28;20693;-56
2024/01/02 03:13:36;;;;;;;21.33;13.57;;;;;;;8.43;100.00;63818.44;5070386;28;20297;-56
2024/01/02 03:16:02;;;;;;;19.43;12.63;;;;;;;8.52;100.00;63830.22;5070564;28;20193;-57
2024/01/02 03:18:28;;;;;;;18.63;12.40;;;;;;;8.51;100.00;63828.59;5070791;28;20286;-54
2024/01/02 03:20:53;;;;;;;21.10;13.40;;;;;;;8.47;100.00;63827.28;5052504;28;20193;-55
2024/01/02 03:23:19;;;;;;;20.50;12.57;;;;;;;8.53;100.00;63833.81;5070656;28;20213;-54
2024/01/02 03:25:44;;;;;;;22.67;12.10;;;;;;;8.62;100.00;63841.16;5070400;28;20197;-54
2024/01/02 03:28:10;;;;;;;19.83;12.33;;;;;;;8.64;100.00;63843.34;5052557;28;20258;-53
2024/01/02 03:30:37;;;;;;;23.43;13.30;;;;;;;8.52;100.00;63829.69;5052710;28;20185;-53
2024/01/02 03:33:02;;;;;;;18.03;11.50;;;;;;;8.48;100.00;63825.31;5070339;28;20282;-55
2024/01/02 03:35:28;;;;;;;19.43;13.00;;;;;;;8.51;100.00;63831.66;5070387;28;20256;-53
2024/01/02 03:37:54;;;;;;;17.83;9.07;;;;;;;8.52;100.00;63832.19;5070328;28;20220;-53
2024/01/02 03:40:20;;;;;;;14.70;9.63;;;;;;;8.47;100.00;63824.75;5070413;28;20207;-53
2024/01/02 03:42:45;;;;;;;16.17;11.07;;;;;;;8.52;100.00;63829.69;5070542;28;20216;-53
2024/01/02 03:45:11;;;;;;;16.60;10.63;;;;;;;8.56;100.00;63837.13;5070322;28;20193;-53
2024/01/02 03:47:37;;;;;;;19.00;11.90;;;;;;;8.73;100.00;63855.69;5052277;28;20217;-53
2024/01/02 03:50:03;;;;;;;20.40;10.77;;;;;;;8.52;100.00;63829.69;5070166;28;20314;-53
2024/01/02 03:52:29;;;;;;;16.00;10.53;;;;;;;8.32;100.00;63808.41;5070096;28;20209;-53
2024/01/02 03:54:54;;;;;;;15.60;10.93;;;;;;;8.37;100.00;63814.41;5052167;28;20311;-53
2024/01/02 03:57:20;;;;;;;14.27;9.20;;;;;;;8.41;100.00;63821.28;5070010;28;20304;-54
2024/01/02 03:59:45;;;;;;;14.13;9.33;;;;;;;8.50;100.00;63830.00;5070393;28;20189;-55
2024/01/02 04:02:11;;;;;;;17.30;9.93;;;;;;;8.69;100.00;63848.25;5055493;28;20331;-55
2024/01/02 04:04:40;;;;;;;14.57;9.30;;;;;;;8.86;100.00;63867.38;5073550;28;20219;-53
2024/01/02 04:07:05;;;;;;;15.03;10.10;;;;;;;8.78;100.00;63856.13;5073640;28;20704;-55
2024/01/02 04:09:31;;;;;;;15.77;10.43;;;;;;;8.61;100.00;63839.50;5073539;28;20184;-56
2024/01/02 04:11:56;;;;;;;17.43;11.07;;;;;;;8.65;100.00;63844.41;5055366;28;20217;-53
2024/01/02 04:14:22;;;;;;;17.30;10.33;;;;;;;8.63;100.00;63844.19;5073368;28;20706;-54
2024/01/02 04:16:47;;;;;;;15.77;9.20;;;;;;;8.58;100.00;63839.31;5073155;28;20224;-54
2024/01/02 04:19:13;;;;;;;16.20;9.47;;;;;;;8.60;100.00;63838.41;5073238;28;20250;-54
2024/01/02 04:21:38;;;;;;;17.20;10.50;;;;;;;8.62;100.00;63843.66;5073073;28;20764;-53
2024/01/02 04:24:05;;;;;;;11.50;7.37;;;;;;;8.56;100.00;63836.56;5073121;28;20188;-53
2024/01/02 04:26:30;;;;;;;11.20;7.93;;;;;;;8.59;100.00;63840.38;5073066;28;20196;-53
2024/01/02 04:28:56;;;;;;;10.63;6.67;;;;;;;8.59;100.00;63840.38;5073478;28;20223;-54
2024/01/02 04:31:21;;;;;;;3.73;2.97;;;;;;;8.55;100.00;63832.94;5073021;28;20614;-54
2024/01/02 04:33:47;;;;;;;5.73;4.00;;;;;;;8.51;100.00;63829.13;5072847;28;20274;-53
2024/01/02 04:36:12;;;;;;;5.13;3.93;;;;;;;8.25;100.00;63800.75;5073190;28;20227;-54
2024/01/02 04:38:38;;;;;;;4.83;3.80;;;;;;;8.41;100.00;63820.72;5073184;28;20204;-54
2024/01/02 04:41:04;;;;;;;4.30;2.93;;;;;;;8.71;100.00;63850.44;5055009;28;20242;-55
2024/01/02 04:43:29;;;;;;;4.10;2.80;;;;;;;8.61;100.00;63839.50;5054875;28;20599;-55
2024/01/02 04:45:55;;;;;;;4.93;3.17;;;;;;;8.43;100.00;63820.41;5038355;28;20583;-54
2024/01/02 04:48:21;;;;;;;3.60;2.63;;;;;;;8.40;100.00;63817.66;5073243;28;20582;-55
2024/01/02 04:50:47;;;;;;;4.57;2.63;;;;;;;8.37;100.00;63816.34;5055005;28;20185;-55
2024/01/02 04:53:13;;;;;;;3.30;2.70;;;;;;;8.07;100.00;63784.13;5054901;28;20213;-55
2024/01/02 04:55:38;;;;;;;5.53;2.70;;;;;;;7.91;100.00;63766.66;5073032;28;20729;-55
2024/01/02 04:58:05;;;;;;;4.90;2.80;;;;;;;8.23;100.00;63801.59;5073061;28;20583;-57
2024/01/02 05:00:30;;;;;;;4.33;3.47;;;;;;;8.36;100.00;63815.28;5072691;28;20234;-55
2024/01/02 05:02:57;;;;;;;2.93;2.57;;;;;;;8.48;100.00;63825.88;5072866;28;20295;-55
2024/01/02 05:05:23;;;;;;;2.70;2.27;;;;;;;8.35;100.00;63814.16;5072737;28;20271;-60
2024/01/02 05:07:48;;;;;;;2.43;2.23;;;;;;;8.53;100.00;63830.75;5072633;28;20363;-55
2024/01/02 05:10:14;;;;;;;3.70;2.40;;;;;;;8.41;100.00;63821.28;5072656;28;20188;-54
2024/01/02 05:12:39;;;;;;;3.63;2.43;;;;;;;8.15;100.00;63792.84;5072077;28;20215;-54
2024/01/02 05:15:05;;;;;;;3.90;2.60;;;;;;;7.93;100.00;63768.84;5072596;28;20250;-52
2024/01/02 05:17:31;;;;;;;2.30;2.10;;;;;;;7.84;100.00;63759.00;5072260;28;20586;-53
2024/01/02 05:19:56;;;;;;;2.93;2.43;;;;;;;7.97;100.00;63773.22;5054606;28;20186;-53
2024/01/02 05:22:22;;;;;;;3.50;2.33;;;;;;;7.70;100.00;63746.22;5072364;28;20212;-53
2024/01/02 05:24:48;;;;;;;3.70;2.70;;;;;;;7.58;100.00;63731.19;5072276;28;20204;-54
2024/01/02 05:27:15;;;;;;;3.30;2.10;;;;;;;7.45;100.00;63713.94;5072274;28;20208;-52
2024/01/02 05:29:41;;;;;;;2.87;2.40;;;;;;;7.43;100.00;63712.31;5072248;28;20246;-53
2024/01/02 05:32:06;;;;;;;2.70;2.30;;;;;;;7.26;100.00;63696.28;5072356;28;20229;-56
2024/01/02 05:34:32;;;;;;;2.20;1.70;;;;;;;7.11;100.00;63682.41;5054046;28;20213;-59
2024/01/02 05:36:57;;;;;;;2.63;1.60;;;;;;;6.99;100.00;63666.81;5072219;28;20697;-53
2024/01/02 05:39:23;;;;;;;2.93;1.90;;;;;;;6.93;100.00;63660.28;5072190;28;20192;-54
2024/01/02 05:41:48;;;;;;;2.60;1.93;;;;;;;7.12;100.00;63677.94;5072018;28;20216;-54
2024/01/02 05:44:14;;;;;;;1.30;1.20;;;;;;;6.82;100.00;63648.28;5072096;28;20193;-53
2024/01/02 05:46:39;;;;;;;1.43;1.33;;;;;;;6.66;100.00;63631.38;5071867;28;20654;-54
2024/01/02 05:49:05;;;;;;;1.63;1.50;;;;;;;6.58;100.00;63620.16;5071857;28;20216;-53
2024/01/02 05:51:30;;;;;;;1.73;1.47;;;;;;;6.62;100.00;63626.47;5071620;28;20719;-59
2024/01/02 05:53:56;;;;;;;1.53;1.33;;;;;;;6.59;100.00;63623.19;5071662;28;20592;-55
2024/01/02 05:56:22;;;;;;;3.80;1.50;;;;;;;6.68;100.00;63631.06;5053832;28;20192;-56
2024/01/02 05:58:47;;;;;;;2.20;1.10;;;;;;;6.58;100.00;63622.66;5072103;28;20224;-56
2024/01/02 06:01:13;;;;;;;1.40;1.30;;;;;;;6.49;100.00;63612.84;5071687;28;20220;-56
2024/01/02 06:03:38;;;;;;;2.90;2.00;;;;;;;6.42;100.00;63602.72;5072255;28;20219;-54
2024/01/02 06:06:05;;;;;;;1.87;1.33;;;;;;;6.31;100.00;63590.19;5071722;28;20203;-55
2024/01/02 06:08:38;;;;;;;1.33;1.23;;;;;;;6.26;100.00;63585.28;5071709;28;20326;-52
2024/01/02 06:11:03;;;;;;;3.73;1.20;;;;;;;6.18;100.00;63576.56;5071508;28;20197;-54
2024/01/02 06:13:29;;;;;;;1.33;1.23;;;;;;;6.10;100.00;63570.34;5071473;28;20231;-54
2024/01/02 06:15:54;;;;;;;1.37;1.23;;;;;;;6.03;100.00;63559.69;5071602;28;20279;-54
2024/01/02 06:18:20;;;;;;;2.47;1.23;;;;;;;6.00;100.00;63558.91;5071848;28;20205;-56
2024/01/02 06:20:45;;;;;;;1.20;1.10;;;;;;;5.94;100.00;63550.41;5071456;28;20191;-54
2024/01/02 06:23:11;;;;;;;2.90;1.50;;;;;;;5.92;100.00;63548.78;5070698;28;20714;-53
2024/01/02 06:25:36;;;;;;;2.03;1.30;;;;;;;5.87;100.00;63542.78;5070752;28;20655;-54
2024/01/02 06:28:02;;;;;;;1.13;0.90;;;;;;;5.77;100.00;63532.44;5071382;28;20228;-54
2024/01/02 06:30:28;;;;;;;2.23;1.10;;;;;;;5.78;100.00;63535.47;5071340;28;20200;-53
2024/01/02 06:32:54;;;;;;;1.23;1.10;;;;;;;5.64;100.00;63520.75;5071216;28;20322;-53
2024/01/02 06:35:19;;;;;;;2.60;1.40;;;;;;;5.74;100.00;63531.09;5071342;28;20216;-54
2024/01/02 06:37:45;;;;;;;3.40;1.10;;;;;;;5.66;100.00;63522.94;5071094;28;20238;-58
2024/01/02 06:40:11;;;;;;;2.40;0.93;;;;;;;5.60;100.00;63515.84;5071151;28;20192;-54
2024/01/02 06:42:36;;;;;;;1.13;1.00;;;;;;;5.64;100.00;63520.75;5071212;28;20250;-54
2024/01/02 06:45:02;;;;;;;0.73;0.53;;;;;;;5.57;100.00;63512.59;5070885;28;20203;-54
2024/01/02 06:47:27;;;;;;;1.13;0.80;;;;;;;5.64;100.00;63518.25;5071267;28;20688;-54
2024/01/02 06:49:53;;;;;;;0.80;0.80;;;;;;;5.54;100.00;63509.88;5069243;28;20590;-54
2024/01/02 06:52:18;;;;;;;0.70;0.70;;;;;;;5.62;100.00;63515.53;5069115;28;20223;-53
2024/01/02 06:54:44;;;;;;;1.37;0.67;;;;;;;5.55;100.00;63512.91;5070774;28;20208;-53
2024/01/02 06:57:10;;;;;;;1.10;0.97;;;;;;;5.55;100.00;63510.97;5070842;28;20204;-54
2024/01/02 06:59:37;;;;;;;0.80;0.77;;;;;;;5.57;100.00;63512.59;5070413;28;20199;-54
2024/01/02 07:02:03;;;;;;;1.13;0.77;;;;;;;5.55;100.00;63510.97;5070006;28;20226;-55
2024/01/02 07:04:28;;;;;;;1.50;1.00;;;;;;;5.56;100.00;63512.06;5052031;28;20204;-55
2024/01/02 07:06:54;;;;;;;1.77;0.90;;;;;;;5.52;100.00;63507.16;5071068;28;20718;-54
2024/01/02 07:09:20;;;;;;;1.50;1.40;;;;;;;5.57;100.00;63512.59;5070828;28;20545;-55
2024/01/02 07:11:45;;;;;;;1.70;1.60;;;;;;;5.53;100.00;63508.25;5070495;28;20261;-54
2024/01/02 07:14:11;;;;;;;1.47;1.37;;;;;;;5.56;100.00;63511.50;5070529;28;20208;-53
2024/01/02 07:16:37;;;;;;;2.27;1.20;;;;;;;5.56;100.00;63509.56;5070299;28;20188;-53
2024/01/02 07:19:03;;;;;;;2.73;1.00;;;;;;;5.55;100.00;63507.94;5070671;28;20275;-53
2024/01/02 07:21:29;;;;;;;1.83;1.37;;;;;;;5.53;100.00;63506.28;5070498;28;20218;-54
2024/01/02 07:23:54;;;;;;;0.90;0.90;;;;;;;5.60;100.00;63513.34;5070494;28;20215;-54
2024/01/02 07:26:19;;;;;;;3.60;1.83;;;;;;;5.71;100.00;63528.41;5070339;28;20238;-55
2024/01/02 07:28:45;;;;;;;2.17;1.57;;;;;;;5.57;100.00;63512.59;5070733;28;20217;-54
2024/01/02 07:31:11;;;;;;;1.93;1.70;;;;;;;5.57;100.00;63510.09;5070197;28;20196;-54
2024/01/02 07:33:37;;;;;;;1.50;1.27;;;;;;;5.57;100.00;63513.16;5070709;28;20209;-54
2024/01/02 07:36:03;;;;;;;1.43;1.30;;;;;;;5.54;100.00;63509.88;5072599;28;20271;-54
2024/01/02 07:38:30;;;;;;;1.20;1.10;;;;;;;5.58;100.00;63513.69;5074299;28;20255;-53
2024/01/02 07:40:56;;;;;;;2.60;1.37;;;;;;;5.68;100.00;63524.56;5073808;28;20184;-54
2024/01/02 07:43:23;;;;;;;2.67;1.33;;;;;;;5.63;100.00;63519.13;5073815;28;20642;-63
2024/01/02 07:45:49;;;;;;;1.67;1.40;;;;;;;5.65;100.00;63521.31;5073971;28;20237;-53
2024/01/02 07:48:14;;;;;;;1.47;1.07;;;;;;;5.75;100.00;63532.75;5073665;28;20212;-54
2024/01/02 07:50:40;;;;;;;2.80;1.50;;;;;;;5.75;100.00;63532.19;5073847;28;20578;-52
2024/01/02 07:53:05;;;;;;;3.60;1.00;;;;;;;5.64;100.00;63520.22;5073957;28;20251;-53
2024/01/02 07:55:31;;;;;;;1.50;1.33;;;;;;;5.45;100.00;63500.09;5073570;28;20212;-54
2024/01/02 07:57:57;;;;;;;2.60;1.03;;;;;;;5.46;100.00;63501.16;5073764;28;20290;-55
2024/01/02 08:00:23;;;;;;;1.80;1.27;;;;;;;5.40;100.00;63494.63;5073638;28;20189;-54
2024/01/02 08:02:49;;;;;;;0.90;0.90;;;;;;;5.46;100.00;63498.66;5073807;28;20653;-53
2024/01/02 08:05:14;;;;;;;1.90;0.97;;;;;;;5.42;100.00;63496.81;5073538;28;20689;-53
2024/01/02 08:07:40;;;;;;;1.13;0.90;;;;;;;5.56;100.00;63512.06;5073313;28;20222;-54
2024/01/02 08:10:07;;;;;;;1.60;0.70;;;;;;;5.49;100.00;63504.44;5073495;28;20215;-54
2024/01/02 08:12:33;;;;;;;0.50;0.50;;;;;;;5.42;100.00;63498.75;5073668;28;20222;-53
2024/01/02 08:14:58;;;;;;;0.60;0.60;;;;;;;5.51;100.00;63506.63;5073328;28;20220;-56
2024/01/02 08:17:24;;;;;;;0.40;0.40;;;;;;;5.41;100.00;63492.69;5073576;28;20210;-55
2024/01/02 08:19:54;;;;;;;0.73;0.50;;;;;;;5.53;100.00;63506.28;5073315;28;20188;-55
2024/01/02 08:22:20;;;;;;;0.60;0.50;;;;;;;5.52;100.00;63507.16;5073789;28;20570;-60
2024/01/02 08:24:45;;;;;;;0.47;0.37;;;;;;;5.49;100.00;63501.94;5073209;28;20204;-53
2024/01/02 08:27:11;;;;;;;0.57;0.50;;;;;;;5.50;100.00;63504.97;5073060;28;20216;-54
2024/01/02 08:29:37;;;;;;;1.20;0.63;;;;;;;5.48;100.00;63500.84;5073365;28;20210;-54
2024/01/02 08:32:03;;;;;;;1.37;0.83;;;;;;;5.60;100.00;63518.91;5073123;28;20686;-54
2024/01/02 08:34:29;;;;;;;3.97;0.70;;;;;;;5.78;100.00;63535.47;5073058;28;20239;-55
2024/01/02 08:36:55;;;;;;;0.60;0.53;;;;;;;5.76;100.00;63533.84;5073309;28;20623;-56
2024/01/02 08:39:20;;;;;;;2.17;1.20;;;;;;;5.95;100.00;63554.00;5073181;28;20558;-56
2024/01/02 08:41:46;;;;;;;2.87;0.90;;;;;;;5.89;100.00;63548.03;5073014;28;20288;-55
2024/01/02 08:44:11;;;;;;;1.37;0.93;;;;;;;6.02;100.00;63561.63;5073068;28;20223;-56
2024/01/02 08:46:37;;;;;;;1.30;0.90;;;;;;;5.94;100.00;63553.47;5071968;28;20192;-56
2024/01/02 08:49:03;;;;;;;2.43;1.60;;;;;;;6.28;100.00;63587.44;5072866;28;20192;-55
2024/01/02 08:51:28;;;;;;;2.40;1.53;;;;;;;6.44;100.00;63607.41;5072858;28;20191;-55
2024/01/02 08:53:54;;;;;;;2.10;1.37;;;;;;;6.52;100.00;63616.13;5072759;28;20280;-55
2024/01/02 08:56:21;;;;;;;1.53;1.10;;;;;;;6.56;100.00;63617.44;5072775;28;20180;-55
2024/01/02 08:58:46;;;;;;;4.87;1.33;;;;;;;6.46;100.00;63609.59;5073099;28;20228;-55
2024/01/02 09:01:12;;;;;;;1.10;0.77;;;;;;;6.22;100.00;63585.38;5072827;28;20188;-54
2024/01/02 09:03:38;;;;;;;1.17;1.00;;;;;;;6.28;100.00;63589.94;5073023;28;20215;-54
2024/01/02 09:06:04;;;;;;;1.83;1.47;;;;;;;6.36;100.00;63598.66;5072700;28;20562;-53
2024/01/02 09:08:30;;;;;;;1.53;1.13;;;;;;;6.84;100.00;63650.47;5054644;28;20211;-57
2024/01/02 09:10:56;;;;;;;1.63;1.33;;;;;;;6.99;100.00;63663.78;5072651;28;20181;-56
2024/01/02 09:13:21;;;;;;;1.53;1.03;;;;;;;7.07;100.00;63672.50;5072526;28;20200;-55
2024/01/02 09:15:47;;;;;;;1.30;0.77;;;;;;;7.18;100.00;63682.53;5072493;28;20212;-55
2024/01/02 09:18:12;;;;;;;1.10;0.87;;;;;;;7.23;100.00;63690.47;5072816;28;20213;-54
2024/01/02 09:20:38;;;;;;;1.40;1.13;;;;;;;7.52;100.00;63724.09;5072731;28;20193;-55
2024/01/02 09:23:04;;;;;;;2.53;1.20;;;;;;;7.38;100.00;63706.84;5072603;28;20209;-56
2024/01/02 09:25:31;;;;;;;4.80;1.30;;;;;;;7.08;100.00;63676.09;5054396;28;20195;-55
2024/01/02 09:27:59;;;;;;;3.63;1.80;;;;;;;7.28;100.00;63697.91;5072579;28;20201;-55
2024/01/02 09:30:25;;;;;;;3.13;1.70;;;;;;;7.07;100.00;63675.00;5072266;28;20237;-55
2024/01/02 09:32:50;;;;;;;5.33;2.30;;;;;;;7.22;100.00;63688.84;5072198;28;20213;-55
2024/01/02 09:35:17;;;;;;;2.17;1.30;;;;;;;7.24;100.00;63694.09;5072249;28;20236;-56
2024/01/02 09:37:44;;;;;;;3.83;1.90;;;;;;;7.03;100.00;63668.66;5072022;28;20209;-54
2024/01/02 09:40:22;;;;;;;3.30;1.17;;;;;;;7.06;100.00;63674.47;5054262;28;20185;-53
2024/01/02 09:43:17;;;;;;;2.00;0.80;;;;;;;6.71;100.00;63633.78;5079772;22;20281;-53
2024/01/02 09:45:57;;;;;;;2.90;1.07;;;;;;;6.69;100.00;63632.16;5063223;28;20225;-56
2024/01/02 09:48:35;;;;;;;1.23;0.90;;;;;;;6.64;100.00;63631.72;5084671;22;20228;-53
2024/01/02 09:51:22;;;;;;;1.90;0.97;;;;;;;6.48;100.00;63611.78;5071719;28;20184;-55
2024/01/02 09:53:51;;;;;;;1.70;0.87;;;;;;;6.41;100.00;63606.63;5071763;28;20240;-54
2024/01/02 09:56:24;;;;;;;0.83;0.60;;;;;;;6.56;100.00;63620.50;5071963;28;20233;-55
2024/01/02 09:59:02;;;;;;;3.27;1.30;;;;;;;6.53;100.00;63617.22;5071823;28;20235;-56
2024/01/02 10:02:12;;;;;;;2.67;1.27;;;;;;;6.74;100.00;63642.63;5071894;28;20211;-55
2024/01/02 10:04:59;;;;;;;2.57;1.00;;;;;;;6.81;100.00;63647.19;4954907;28;20185;-54
2024/01/02 10:07:59;;;;;;;3.17;1.33;;;;;;;6.79;100.00;63645.00;4970729;28;20218;-55
2024/01/02 10:10:36;;;;;;;2.00;0.97;;;;;;;6.89;100.00;63655.38;5059781;28;20193;-55
2024/01/02 10:13:43;;;;;;;2.83;0.70;;;;;;;7.07;100.00;63675.00;5053563;28;20718;-55
2024/01/02 10:16:18;;;;;;;0.60;0.60;;;;;;;7.06;100.00;63676.41;5027094;28;20228;-55
2024/01/02 10:18:54;;;;;;;2.47;0.70;;;;;;;7.16;100.00;63684.81;5071606;28;20278;-54
2024/01/02 10:21:31;;;;;;;2.73;1.13;;;;;;;7.28;100.00;63698.44;5070205;28;20196;-55
2024/01/02 10:24:41;;;;;;;1.80;0.90;;;;;;;7.46;100.00;63717.53;5070139;28;20187;-54
2024/01/02 10:27:12;;;;;;;1.63;1.00;;;;;;;7.61;100.00;63736.94;5045883;28;20303;-55
2024/01/02 10:30:08;;;;;;;1.23;1.13;;;;;;;8.33;100.00;63812.53;5053360;28;20224;-55
2024/01/02 10:33:11;;;;;;;0.90;0.80;;;;;;;9.09;100.00;63890.00;5069279;28;20220;-55
2024/01/02 10:35:44;;;;;;;2.30;1.40;;;;;;;9.24;100.00;63908.91;5041054;28;20223;-55
2024/01/02 10:38:30;;;;;;;1.53;1.03;;;;;;;8.99;100.00;63886.03;5070840;28;20215;-54
2024/01/02 10:41:39;;;;;;;2.20;1.37;;;;;;;9.26;100.00;63910.53;5071354;28;20193;-56
2024/01/02 10:44:22;;;;;;;1.63;1.10;;;;;;;9.55;100.00;63941.69;5033425;28;20207;-54
2024/01/02 10:46:57;;;;;;;4.33;1.57;;;;;;;10.42;100.00;64036.34;5070959;28;20213;-52
2024/01/02 10:49:25;;;;;;;5.90;2.30;;;;;;;10.93;100.00;64092.16;5071089;28;20176;-58
2024/01/02 10:51:59;;;;;;;3.67;1.27;;;;;;;11.14;100.00;64112.66;5070863;28;20266;-54
2024/01/02 10:54:51;;;;;;;1.77;1.57;;;;;;;10.29;100.00;64025.19;5070895;28;20217;-53
2024/01/02 10:57:40;;;;;;;2.53;1.97;;;;;;;9.61;100.00;63948.81;5071035;28;20739;-54
2024/01/02 11:00:12;;;;;;;2.17;1.70;;;;;;;9.27;100.00;63912.16;5071122;28;20203;-55
2024/01/02 11:02:51;;;;;;;2.23;1.77;;;;;;;9.21;100.00;63905.63;5070950;28;20646;-54
2024/01/02 11:05:26;;;;;;;4.53;1.73;;;;;;;8.86;100.00;63864.31;5070756;28;20282;-54
2024/01/02 11:08:05;;;;;;;3.27;1.97;;;;;;;9.39;100.00;63924.75;5070665;28;20294;-53
2024/01/02 11:10:38;;;;;;;3.10;1.70;;;;;;;10.03;100.00;63997.25;5052236;28;20188;-53
2024/01/02 11:13:08;;;;;;;2.07;1.77;;;;;;;9.26;100.00;63910.53;5070747;28;20236;-55
2024/01/02 11:15:40;;;;;;;2.70;1.90;;;;;;;10.00;100.00;63988.38;5052678;28;20653;-54
2024/01/02 11:18:06;;;;;;;3.77;2.30;;;;;;;10.37;100.00;64028.91;5052507;28;20734;-56
2024/01/02 11:21:00;;;;;;;3.70;2.00;;;;;;;10.04;100.00;63992.75;5070728;28;20207;-57
2024/01/02 11:23:40;;;;;;;5.10;2.00;;;;;;;10.21;100.00;64011.38;5070564;28;20212;-54
2024/01/02 11:26:27;;;;;;;1.87;1.77;;;;;;;10.42;100.00;64036.34;5052659;28;20244;-55
2024/01/02 11:28:58;;;;;;;3.10;1.80;;;;;;;10.65;100.00;64061.50;5070488;28;20212;-54
2024/01/02 11:31:26;;;;;;;2.63;1.63;;;;;;;10.86;100.00;64084.50;5070787;28;20221;-54
2024/01/02 11:34:04;;;;;;;2.30;1.50;;;;;;;11.67;100.00;64170.19;5070412;28;20193;-54